createdAt,value
2019-03-03T00:00:25.321Z,9.40
2019-03-03T00:05:19.906Z,9.40
2019-03-03T00:10:14.735Z,9.30
2019-03-03T00:15:12.218Z,9.30
2019-03-03T00:20:11.056Z,9.20
2019-03-03T00:25:08.624Z,9.10
2019-03-03T00:30:03.583Z,9.10
2019-03-03T00:34:58.152Z,9.00
2019-03-03T00:39:54.384Z,9.10
2019-03-03T00:44:50.595Z,9.10
2019-03-03T00:49:58.560Z,9.20
2019-03-03T00:55:09.472Z,9.10
2019-03-03T01:00:08.720Z,9.10
2019-03-03T01:05:16.962Z,9.20
2019-03-03T01:10:29.271Z,9.20
2019-03-03T01:15:28.337Z,9.20
2019-03-03T01:20:24.563Z,9.20
2019-03-03T01:25:19.139Z,9.40
2019-03-03T01:30:14.461Z,9.40
2019-03-03T01:35:11.450Z,9.40
2019-03-03T01:40:10.779Z,9.30
2019-03-03T01:45:15.019Z,9.30
2019-03-03T01:50:12.872Z,9.30
2019-03-03T01:55:13.308Z,9.30
2019-03-03T02:00:28.936Z,9.20
2019-03-03T02:05:23.691Z,9.20
2019-03-03T02:10:21.819Z,9.10
2019-03-03T02:15:16.660Z,9.10
2019-03-03T02:20:12.863Z,9.10
2019-03-03T02:25:15.419Z,9.10
2019-03-03T02:30:17.120Z,9.10
2019-03-03T02:35:11.757Z,9.20
2019-03-03T02:40:16.782Z,9.10
2019-03-03T02:45:15.064Z,9.10
2019-03-03T02:50:15.292Z,9.10
2019-03-03T02:55:13.566Z,9.20
2019-03-03T03:00:23.418Z,9.30
2019-03-03T03:05:22.125Z,9.20
2019-03-03T03:10:27.668Z,9.10
2019-03-03T03:15:26.742Z,9.00
2019-03-03T03:20:31.869Z,8.80
2019-03-03T03:25:44.444Z,8.80
2019-03-03T03:30:40.654Z,8.80
2019-03-03T03:35:36.889Z,8.70
2019-03-03T03:40:34.085Z,8.60
2019-03-03T03:45:39.127Z,8.40
2019-03-03T03:50:47.329Z,8.30
2019-03-03T03:55:53.264Z,8.10
2019-03-03T04:01:01.468Z,8.00
2019-03-03T04:06:07.976Z,7.90
2019-03-03T04:11:19.194Z,7.80
2019-03-03T04:16:18.077Z,7.80
2019-03-03T04:21:22.774Z,7.80
2019-03-03T04:26:27.967Z,7.70
2019-03-03T04:31:24.169Z,7.50
2019-03-03T04:36:23.101Z,7.40
2019-03-03T04:41:22.317Z,7.40
2019-03-03T04:46:27.483Z,7.40
2019-03-03T04:51:27.299Z,7.20
2019-03-03T04:56:23.522Z,7.30
2019-03-03T05:01:31.518Z,7.40
2019-03-03T05:06:33.573Z,7.50
2019-03-03T05:12:19.292Z,7.40
2019-03-03T05:17:18.154Z,7.40
2019-03-03T05:22:12.739Z,7.30
2019-03-03T05:27:07.302Z,7.40
2019-03-03T05:32:01.900Z,7.60
2019-03-03T05:36:56.478Z,7.80
2019-03-03T05:41:51.126Z,7.80
2019-03-03T05:46:45.696Z,7.60
2019-03-03T05:51:40.358Z,7.60
2019-03-03T05:56:34.914Z,7.60
2019-03-03T06:01:29.505Z,7.50
2019-03-03T06:06:24.071Z,7.50
2019-03-03T06:11:18.657Z,7.50
2019-03-03T06:16:13.225Z,7.50
2019-03-03T06:21:07.890Z,7.40
2019-03-03T06:26:02.467Z,7.50
2019-03-03T06:30:57.055Z,7.80
2019-03-03T06:35:52.838Z,7.90
2019-03-03T06:40:47.705Z,8.10
2019-03-03T06:45:42.262Z,8.20
2019-03-03T06:50:36.853Z,8.20
2019-03-03T06:55:31.431Z,8.30
2019-03-03T07:00:26.026Z,8.40
2019-03-03T07:05:20.600Z,8.40
2019-03-03T07:10:15.616Z,8.40
2019-03-03T07:15:16.572Z,8.60
2019-03-03T07:20:13.758Z,8.70
2019-03-03T07:25:12.498Z,8.90
2019-03-03T07:30:15.670Z,9.00
2019-03-03T07:35:10.253Z,9.10
2019-03-03T07:40:07.349Z,9.30
2019-03-03T07:45:01.917Z,9.60
2019-03-03T07:49:56.503Z,9.70
2019-03-03T07:54:51.070Z,9.80
2019-03-03T07:59:45.666Z,10.00
2019-03-03T08:04:40.251Z,10.20
2019-03-03T08:09:34.843Z,10.30
2019-03-03T08:14:29.452Z,10.30
2019-03-03T08:19:24.078Z,10.40
2019-03-03T08:24:18.637Z,10.50
2019-03-03T08:29:13.287Z,10.70
2019-03-03T08:34:07.849Z,10.60
2019-03-03T08:39:02.450Z,10.70
2019-03-03T08:43:58.680Z,10.80
2019-03-03T08:49:06.408Z,10.90
2019-03-03T08:54:03.571Z,10.90
2019-03-03T08:59:00.791Z,11.10
2019-03-03T09:04:13.259Z,10.90
2019-03-03T09:09:26.765Z,10.90
2019-03-03T09:14:39.107Z,10.90
2019-03-03T09:19:50.270Z,11.00
2019-03-03T09:24:46.499Z,11.10
2019-03-03T09:29:42.737Z,11.30
2019-03-03T09:34:56.742Z,11.30
2019-03-03T09:40:09.720Z,11.30
2019-03-03T09:45:07.700Z,11.50
2019-03-03T09:50:06.407Z,11.80
2019-03-03T09:55:08.071Z,12.00
2019-03-03T10:00:04.407Z,12.00
2019-03-03T10:05:00.631Z,12.10
2019-03-03T10:10:02.625Z,12.10
2019-03-03T10:15:14.992Z,12.00
2019-03-03T10:20:19.736Z,12.10
2019-03-03T10:25:25.960Z,12.20
2019-03-03T10:30:22.178Z,12.40
2019-03-03T10:35:21.217Z,12.40
2019-03-03T10:40:20.807Z,12.60
2019-03-03T10:45:17.039Z,12.60
2019-03-03T10:50:30.088Z,12.50
2019-03-03T10:55:26.884Z,12.50
2019-03-03T11:00:30.114Z,12.70
2019-03-03T11:05:29.317Z,12.60
2019-03-03T11:10:28.498Z,12.70
2019-03-03T11:15:30.462Z,13.00
2019-03-03T11:20:30.666Z,13.40
2019-03-03T11:25:26.909Z,13.20
2019-03-03T11:30:28.566Z,13.10
2019-03-03T11:35:41.057Z,13.10
2019-03-03T11:40:39.781Z,13.30
2019-03-03T11:45:39.054Z,13.40
2019-03-03T11:50:42.416Z,13.50
2019-03-03T11:55:38.602Z,13.40
2019-03-03T12:00:51.129Z,13.40
2019-03-03T12:05:53.071Z,13.30
2019-03-03T12:10:52.393Z,13.20
2019-03-03T12:16:00.753Z,13.30
2019-03-03T12:21:11.977Z,13.40
2019-03-03T12:26:10.935Z,13.40
2019-03-03T12:31:10.154Z,13.70
2019-03-03T12:36:22.574Z,13.80
2019-03-03T12:41:27.821Z,13.90
2019-03-03T12:46:24.033Z,14.00
2019-03-03T12:51:28.730Z,14.20
2019-03-03T12:56:33.904Z,14.40
2019-03-03T13:01:45.871Z,14.60
2019-03-03T13:06:42.157Z,14.50
2019-03-03T13:11:38.390Z,14.30
2019-03-03T13:16:40.376Z,14.30
2019-03-03T13:21:42.698Z,14.30
2019-03-03T13:26:41.582Z,14.50
2019-03-03T13:31:54.399Z,14.70
2019-03-03T13:36:53.324Z,14.90
2019-03-03T13:41:49.627Z,15.30
2019-03-03T13:46:44.213Z,15.20
2019-03-03T13:51:38.873Z,15.20
2019-03-03T13:56:33.469Z,15.10
2019-03-03T14:01:28.211Z,14.70
2019-03-03T14:06:22.919Z,14.80
2019-03-03T14:11:20.559Z,14.80
2019-03-03T14:16:15.167Z,14.70
2019-03-03T14:21:09.915Z,14.80
2019-03-03T14:26:04.484Z,14.80
2019-03-03T14:30:59.076Z,14.90
2019-03-03T14:35:53.746Z,15.00
2019-03-03T14:40:48.346Z,15.10
2019-03-03T14:45:43.084Z,15.10
2019-03-03T14:50:37.817Z,15.20
2019-03-03T14:55:32.410Z,15.20
2019-03-03T15:00:32.333Z,15.20
2019-03-03T15:05:26.902Z,15.20
2019-03-03T15:10:21.701Z,15.30
2019-03-03T15:15:26.597Z,15.40
2019-03-03T15:20:21.337Z,15.40
2019-03-03T15:25:16.676Z,15.30
2019-03-03T15:30:23.461Z,15.30
2019-03-03T15:35:18.334Z,15.30
2019-03-03T15:40:19.885Z,15.40
2019-03-03T15:45:18.814Z,15.40
2019-03-03T15:50:15.613Z,15.30
2019-03-03T15:55:23.435Z,15.10
2019-03-03T16:00:28.327Z,15.00
2019-03-03T16:05:23.170Z,14.90
2019-03-03T16:10:26.181Z,14.60
2019-03-03T16:15:21.019Z,14.50
2019-03-03T16:20:21.939Z,14.40
2019-03-03T16:25:22.976Z,14.30
2019-03-03T16:30:23.216Z,14.30
2019-03-03T16:35:18.916Z,14.10
2019-03-03T16:40:20.648Z,14.10
2019-03-03T16:45:17.299Z,14.10
2019-03-03T16:50:15.496Z,14.20
2019-03-03T16:55:14.567Z,14.10
2019-03-03T17:00:19.515Z,13.90
2019-03-03T17:05:29.169Z,13.70
2019-03-03T17:10:23.752Z,13.70
2019-03-03T17:15:30.013Z,13.50
2019-03-03T17:20:24.607Z,13.30
2019-03-03T17:25:29.661Z,13.20
2019-03-03T17:30:28.782Z,13.10
2019-03-03T17:35:23.586Z,12.90
2019-03-03T17:40:26.808Z,12.80
2019-03-03T17:45:24.751Z,12.70
2019-03-03T17:50:30.957Z,12.30
2019-03-03T17:55:25.683Z,12.10
2019-03-03T18:00:30.075Z,12.00
2019-03-03T18:05:24.680Z,11.80
2019-03-03T18:10:19.416Z,11.80
2019-03-03T18:15:16.564Z,11.70
2019-03-03T18:20:20.859Z,11.50
2019-03-03T18:25:19.488Z,11.50
2019-03-03T18:30:20.723Z,11.60
2019-03-03T18:35:15.526Z,11.60
2019-03-03T18:40:24.554Z,11.50
2019-03-03T18:45:21.635Z,11.60
2019-03-03T18:50:20.478Z,11.50
2019-03-03T18:55:15.272Z,11.40
2019-03-03T19:00:23.212Z,11.30
2019-03-03T19:05:17.948Z,11.20
2019-03-03T19:10:22.255Z,11.20
2019-03-03T19:15:20.434Z,11.10
2019-03-03T19:20:21.665Z,11.10
2019-03-03T19:25:17.852Z,11.10
2019-03-03T19:30:24.625Z,11.20
2019-03-03T19:35:19.297Z,11.10
2019-03-03T19:40:15.313Z,11.10
2019-03-03T19:45:20.042Z,11.20
2019-03-03T19:50:16.486Z,11.20
2019-03-03T19:55:15.778Z,11.20
2019-03-03T20:00:20.920Z,11.20
2019-03-03T20:05:16.040Z,11.20
2019-03-03T20:10:14.024Z,11.10
2019-03-03T20:15:12.623Z,10.90
2019-03-03T20:20:13.950Z,10.80
2019-03-03T20:25:10.457Z,10.70
2019-03-03T20:30:08.434Z,10.70
2019-03-03T20:35:03.316Z,10.60
2019-03-03T20:39:57.918Z,10.60
2019-03-03T20:44:52.507Z,10.60
2019-03-03T20:49:47.114Z,10.60
2019-03-03T20:54:41.717Z,10.50
2019-03-03T20:59:36.304Z,10.50
2019-03-03T21:04:30.898Z,10.50
2019-03-03T21:09:25.500Z,10.50
2019-03-03T21:14:20.075Z,10.40
2019-03-03T21:19:14.665Z,10.40
2019-03-03T21:24:09.259Z,10.40
2019-03-03T21:29:03.863Z,10.50
2019-03-03T21:33:58.434Z,10.50
2019-03-03T21:38:53.028Z,10.60
2019-03-03T21:43:47.635Z,10.60
2019-03-03T21:48:42.237Z,10.60
2019-03-03T21:53:36.809Z,10.60
2019-03-03T21:58:31.410Z,10.60
2019-03-03T22:03:26.072Z,10.70
2019-03-03T22:08:20.661Z,10.90
2019-03-03T22:13:15.253Z,11.00
2019-03-03T22:18:09.854Z,10.90
2019-03-03T22:23:04.601Z,10.90
2019-03-03T22:27:59.208Z,10.90
2019-03-03T22:32:53.815Z,10.90
2019-03-03T22:37:48.389Z,10.90
2019-03-03T22:42:42.966Z,11.00
2019-03-03T22:47:37.577Z,11.20
2019-03-03T22:52:32.168Z,11.50
2019-03-03T22:57:26.775Z,11.60
2019-03-03T23:02:22.161Z,11.60
2019-03-03T23:07:30.354Z,11.70
2019-03-03T23:12:46.211Z,11.60
2019-03-03T23:17:59.867Z,11.30
2019-03-03T23:23:43.025Z,11.00
2019-03-03T23:28:37.621Z,10.80
2019-03-03T23:33:32.204Z,10.40
2019-03-03T23:38:26.787Z,10.20
2019-03-03T23:43:21.368Z,9.80
2019-03-03T23:48:16.020Z,9.50
2019-03-03T23:53:10.682Z,9.20
2019-03-03T23:58:05.390Z,9.20
